createdAt,value
2024-03-22T00:04:27.683Z,70.90
2024-03-22T00:09:29.580Z,70.74
2024-03-22T00:14:32.304Z,71.04
2024-03-22T00:19:35.987Z,71.48
2024-03-22T00:24:37.744Z,71.23
2024-03-22T00:29:39.621Z,71.50
2024-03-22T00:34:41.378Z,71.81
2024-03-22T00:39:43.083Z,72.22
2024-03-22T00:44:44.760Z,72.46
2024-03-22T00:49:46.544Z,72.82
2024-03-22T00:54:48.374Z,73.29
2024-03-22T00:59:50.091Z,72.97
2024-03-22T01:04:51.851Z,73.62
2024-03-22T01:09:53.594Z,73.40
2024-03-22T01:14:55.551Z,73.31
2024-03-22T01:19:57.321Z,73.67
2024-03-22T01:24:58.963Z,73.83
2024-03-22T01:30:00.739Z,74.43
2024-03-22T01:35:02.435Z,74.30
2024-03-22T01:40:08.222Z,74.38
2024-03-22T01:45:10.004Z,75.01
2024-03-22T01:50:12.994Z,75.13
2024-03-22T01:55:14.923Z,75.53
2024-03-22T02:00:17.099Z,75.67
2024-03-22T02:05:22.719Z,75.54
2024-03-22T02:10:24.506Z,75.99
2024-03-22T02:15:26.283Z,75.83
2024-03-22T02:20:27.973Z,75.85
2024-03-22T02:25:29.690Z,76.42
2024-03-22T02:30:31.423Z,76.55
2024-03-22T02:35:33.216Z,76.25
2024-03-22T02:40:34.952Z,76.82
2024-03-22T02:45:36.894Z,77.07
2024-03-22T02:50:39.253Z,77.32
2024-03-22T02:55:41.482Z,77.30
2024-03-22T03:00:43.783Z,77.30
2024-03-22T03:05:45.658Z,77.36
2024-03-22T03:10:47.481Z,77.56
2024-03-22T03:15:49.279Z,77.83
2024-03-22T03:20:51.197Z,78.05
2024-03-22T03:25:52.891Z,77.99
2024-03-22T03:30:54.539Z,78.41
2024-03-22T03:35:56.293Z,78.36
2024-03-22T03:40:58.040Z,77.90
2024-03-22T03:45:59.832Z,77.93
2024-03-22T03:51:04.164Z,77.79
2024-03-22T03:56:05.925Z,77.49
2024-03-22T04:01:09.016Z,77.53
2024-03-22T04:06:10.794Z,77.77
2024-03-22T04:11:12.986Z,77.57
2024-03-22T04:16:15.088Z,77.85
2024-03-22T04:21:16.880Z,77.74
2024-03-22T04:26:18.550Z,77.44
2024-03-22T04:31:20.261Z,77.38
2024-03-22T04:36:22.056Z,76.58
2024-03-22T04:41:23.787Z,76.07
2024-03-22T04:46:25.565Z,75.35
2024-03-22T04:51:27.352Z,74.90
2024-03-22T04:56:29.078Z,74.54
2024-03-22T05:01:30.727Z,74.34
2024-03-22T05:06:32.499Z,73.69
2024-03-22T05:11:34.202Z,72.86
2024-03-22T05:16:36.454Z,72.55
2024-03-22T05:21:38.146Z,72.23
2024-03-22T05:26:40.172Z,72.22
2024-03-22T05:31:50.152Z,72.22
2024-03-22T05:36:51.917Z,72.06
2024-03-22T05:41:55.103Z,72.12
2024-03-22T05:46:56.931Z,72.14
2024-03-22T05:51:59.390Z,72.31
2024-03-22T05:57:01.766Z,72.45
2024-03-22T06:02:03.491Z,72.46
2024-03-22T06:07:05.737Z,72.53
2024-03-22T06:12:07.719Z,72.56
2024-03-22T06:17:09.779Z,72.68
2024-03-22T06:22:11.478Z,72.68
2024-03-22T06:27:14.694Z,72.55
2024-03-22T06:32:16.537Z,72.55
2024-03-22T06:37:18.217Z,72.59
2024-03-22T06:42:19.977Z,72.54
2024-03-22T06:47:22.831Z,72.36
2024-03-22T06:52:24.813Z,71.83
2024-03-22T06:57:26.555Z,71.69
2024-03-22T07:02:28.318Z,71.93
2024-03-22T07:07:30.025Z,71.97
2024-03-22T07:12:31.776Z,72.07
2024-03-22T07:17:33.534Z,71.72
2024-03-22T07:22:35.163Z,71.58
2024-03-22T07:27:37.507Z,71.62
2024-03-22T07:32:39.374Z,71.63
2024-03-22T07:37:41.239Z,71.72
2024-03-22T07:42:42.997Z,71.09
2024-03-22T07:47:44.898Z,70.71
2024-03-22T07:52:46.579Z,70.67
2024-03-22T07:57:48.345Z,70.83
2024-03-22T08:02:50.209Z,71.02
2024-03-22T08:07:51.960Z,70.88
2024-03-22T08:12:54.007Z,70.83
2024-03-22T08:17:58.728Z,70.87
2024-03-22T08:23:00.857Z,70.78
2024-03-22T08:28:07.526Z,70.51
2024-03-22T08:33:14.472Z,70.48
2024-03-22T08:38:18.493Z,70.12
2024-03-22T08:43:23.092Z,70.24
2024-03-22T08:48:24.806Z,70.30
2024-03-22T08:53:26.501Z,70.26
2024-03-22T08:58:29.233Z,69.91
2024-03-22T09:03:31.802Z,69.69
2024-03-22T09:08:35.287Z,69.14
2024-03-22T09:13:37.056Z,68.87
2024-03-22T09:18:38.721Z,68.96
2024-03-22T09:23:40.501Z,68.99
2024-03-22T09:28:43.404Z,68.21
2024-03-22T09:33:46.351Z,67.63
2024-03-22T09:38:48.177Z,65.60
2024-03-22T09:43:51.265Z,65.63
2024-03-22T09:48:54.888Z,64.38
2024-03-22T09:53:56.831Z,63.17
2024-03-22T09:58:59.406Z,61.99
2024-03-22T10:04:02.688Z,61.49
2024-03-22T10:09:06.551Z,61.78
2024-03-22T10:14:13.012Z,61.45
2024-03-22T10:19:17.569Z,62.27
2024-03-22T10:24:19.828Z,60.82
2024-03-22T10:29:23.261Z,60.38
2024-03-22T10:34:26.016Z,61.28
2024-03-22T10:39:28.238Z,61.79
2024-03-22T10:44:30.052Z,60.19
2024-03-22T10:49:37.864Z,59.38
2024-03-22T10:54:45.694Z,59.47
2024-03-22T10:59:47.931Z,59.27
2024-03-22T11:04:58.981Z,60.44
2024-03-22T11:10:07.555Z,60.19
2024-03-22T11:15:11.755Z,60.97
2024-03-22T11:20:13.509Z,61.69
2024-03-22T11:25:15.105Z,61.75
2024-03-22T11:30:17.307Z,62.04
2024-03-22T11:35:19.179Z,62.45
2024-03-22T11:40:20.978Z,61.24
2024-03-22T11:45:24.060Z,60.22
2024-03-22T11:50:25.871Z,59.67
2024-03-22T11:55:31.543Z,60.29
2024-03-22T12:05:38.783Z,60.64
2024-03-22T12:10:40.565Z,60.76
2024-03-22T12:15:42.948Z,60.36
2024-03-22T12:20:46.678Z,60.09
2024-03-22T12:25:48.556Z,59.76
2024-03-22T12:30:53.413Z,59.47
2024-03-22T12:35:55.212Z,58.56
2024-03-22T12:40:57.484Z,58.81
2024-03-22T12:45:59.381Z,58.58
2024-03-22T12:51:01.432Z,58.12
2024-03-22T12:56:07.339Z,58.06
2024-03-22T13:01:11.865Z,57.72
2024-03-22T13:06:13.682Z,58.07
2024-03-22T13:11:15.396Z,57.73
2024-03-22T13:16:17.368Z,57.02
2024-03-22T13:21:19.234Z,57.60
2024-03-22T13:26:20.946Z,58.05
2024-03-22T13:31:24.073Z,58.15
2024-03-22T13:36:27.533Z,57.83
2024-03-22T13:41:29.736Z,58.43
2024-03-22T13:46:31.801Z,58.89
2024-03-22T13:51:33.484Z,58.95
2024-03-22T13:56:35.325Z,59.18
2024-03-22T14:01:37.899Z,59.61
2024-03-22T14:06:39.751Z,59.76
2024-03-22T14:11:42.767Z,59.83
2024-03-22T14:16:44.503Z,60.17
2024-03-22T14:21:50.066Z,60.60
2024-03-22T14:26:51.818Z,60.70
2024-03-22T14:31:53.841Z,60.63
2024-03-22T14:36:55.629Z,61.02
2024-03-22T14:41:57.435Z,60.68
2024-03-22T14:46:59.749Z,60.40
2024-03-22T14:52:01.514Z,60.18
2024-03-22T14:57:03.449Z,60.27
2024-03-22T15:02:05.477Z,60.61
2024-03-22T15:07:07.181Z,60.91
2024-03-22T15:12:10.558Z,61.11
2024-03-22T15:17:12.952Z,61.08
2024-03-22T15:22:17.084Z,61.47
2024-03-22T15:27:18.800Z,61.48
2024-03-22T15:32:21.051Z,61.51
2024-03-22T15:37:22.760Z,62.02
2024-03-22T15:42:24.517Z,62.96
2024-03-22T15:47:26.212Z,62.65
2024-03-22T15:52:28.070Z,63.63
2024-03-22T15:57:30.013Z,64.34
2024-03-22T16:02:31.699Z,64.95
2024-03-22T16:07:33.498Z,64.99
2024-03-22T16:12:35.377Z,64.80
2024-03-22T16:17:37.063Z,65.81
2024-03-22T16:22:39.913Z,66.12
2024-03-22T16:27:41.664Z,67.12
2024-03-22T16:32:43.354Z,67.52
2024-03-22T16:37:45.139Z,68.17
2024-03-22T16:42:48.652Z,68.43
2024-03-22T16:47:51.932Z,67.70
2024-03-22T16:52:53.779Z,67.61
2024-03-22T16:57:55.656Z,68.06
2024-03-22T17:02:57.518Z,68.37
2024-03-22T17:07:59.268Z,68.31
2024-03-22T17:13:01.036Z,68.29
2024-03-22T17:18:03.110Z,68.18
2024-03-22T17:23:05.003Z,68.68
2024-03-22T17:28:08.117Z,69.89
2024-03-22T17:33:10.229Z,69.63
2024-03-22T17:38:12.118Z,69.06
2024-03-22T17:43:15.262Z,68.95
2024-03-22T17:48:17.040Z,69.13
2024-03-22T17:53:19.622Z,68.21
2024-03-22T17:58:21.462Z,67.79
2024-03-22T18:03:23.243Z,66.89
2024-03-22T18:08:25.558Z,66.67
2024-03-22T18:13:28.717Z,66.39
2024-03-22T18:18:30.586Z,65.99
2024-03-22T18:23:34.544Z,65.45
2024-03-22T18:28:36.355Z,65.17
2024-03-22T18:33:38.901Z,64.90
2024-03-22T18:38:40.714Z,64.55
2024-03-22T18:43:42.533Z,64.20
2024-03-22T18:48:44.972Z,63.51
2024-03-22T18:53:47.418Z,63.54
2024-03-22T18:58:49.350Z,63.54
2024-03-22T19:03:51.337Z,63.08
2024-03-22T19:08:53.060Z,63.10
2024-03-22T19:13:55.194Z,63.35
2024-03-22T19:18:56.850Z,63.42
2024-03-22T19:23:58.535Z,63.40
2024-03-22T19:29:02.523Z,63.26
2024-03-22T19:34:06.875Z,63.17
2024-03-22T19:39:10.173Z,63.06
2024-03-22T19:44:14.026Z,63.27
2024-03-22T19:49:18.232Z,63.59
2024-03-22T19:54:23.903Z,63.55
2024-03-22T19:59:25.720Z,63.40
2024-03-22T20:04:27.394Z,63.23
2024-03-22T20:09:29.125Z,63.21
2024-03-22T20:14:30.913Z,63.27
2024-03-22T20:19:32.648Z,63.33
2024-03-22T20:24:34.331Z,63.40
2024-03-22T20:29:36.532Z,63.85
2024-03-22T20:34:38.254Z,63.58
2024-03-22T20:39:40.320Z,63.62
2024-03-22T20:44:41.991Z,63.60
2024-03-22T20:49:45.071Z,63.41
2024-03-22T20:54:46.866Z,63.47
2024-03-22T20:59:48.691Z,63.52
2024-03-22T21:04:52.984Z,63.58
2024-03-22T21:09:56.009Z,63.48
2024-03-22T21:14:58.340Z,63.56
2024-03-22T21:20:00.715Z,63.55
2024-03-22T21:25:03.093Z,64.04
2024-03-22T21:30:04.768Z,64.33
2024-03-22T21:35:06.942Z,64.72
2024-03-22T21:40:08.803Z,65.25
2024-03-22T21:45:10.666Z,64.92
2024-03-22T21:50:12.380Z,65.24
2024-03-22T21:55:14.171Z,65.55
2024-03-22T22:00:16.080Z,65.59
2024-03-22T22:05:17.876Z,65.77
2024-03-22T22:10:19.569Z,66.16
2024-03-22T22:15:24.072Z,66.24
2024-03-22T22:20:25.812Z,66.45
2024-03-22T22:25:27.476Z,66.61
2024-03-22T22:30:29.575Z,66.58
2024-03-22T22:35:31.308Z,66.62
2024-03-22T22:40:33.170Z,66.47
2024-03-22T22:45:34.897Z,66.45
2024-03-22T22:50:38.803Z,66.19
2024-03-22T22:55:40.589Z,66.09
2024-03-22T23:00:42.345Z,66.05
2024-03-22T23:05:44.111Z,66.52
2024-03-22T23:10:45.899Z,66.75
2024-03-22T23:15:47.760Z,66.38
2024-03-22T23:20:50.532Z,67.15
2024-03-22T23:25:52.285Z,67.21
2024-03-22T23:30:54.439Z,67.07
2024-03-22T23:35:56.536Z,67.51
2024-03-22T23:40:58.345Z,67.76
2024-03-22T23:46:00.058Z,68.10
2024-03-22T23:51:01.731Z,67.83
2024-03-22T23:56:03.412Z,68.02
